Time;durP1;ratioP1;P1;durP2;ratioP2;P2;SDS_P1;SDS_P2;PMS_P1;PMS_P2;Temp;Humidity;BMP_temperature;BMP_pressure;BME280_temperature;BME280_humidity;BME280_pressure;Samples;Min_cycle;Max_cycle;Signal;HPM_P1;HPM_P2
2023/12/22 00:01:01;;;;;;;8.97;1.80;;;;;;;;;;5081756;28;20203;-79
2023/12/22 00:03:27;;;;;;;4.77;1.37;;;;;;;;;;5065013;28;20218;-79
2023/12/22 00:05:53;;;;;;;5.20;1.33;;;;;;;;;;5079072;28;20175;-80
2023/12/22 00:08:19;;;;;;;6.13;1.70;;;;;;;;;;5081900;28;20191;-77
2023/12/22 00:10:45;;;;;;;2.27;1.00;;;;;;;;;;5062679;28;20567;-78
2023/12/22 00:13:11;;;;;;;9.00;1.20;;;;;;;;;;5077011;28;20214;-80
2023/12/22 00:15:37;;;;;;;8.07;1.60;;;;;;;;;;5076918;28;20279;-80
2023/12/22 00:18:04;;;;;;;8.53;1.87;;;;;;;;;;5075481;28;20928;-79
2023/12/22 00:20:30;;;;;;;4.63;1.43;;;;;;;;;;5078025;28;20206;-76
2023/12/22 00:22:56;;;;;;;7.43;1.97;;;;;;;;;;5076851;28;20290;-80
2023/12/22 00:25:22;;;;;;;9.50;2.13;;;;;;;;;;5078827;28;20218;-80
2023/12/22 00:27:48;;;;;;;8.67;1.60;;;;;;;;;;5080059;28;20226;-78
2023/12/22 00:30:14;;;;;;;7.57;2.07;;;;;;;;;;5079652;28;20218;-79
2023/12/22 00:32:40;;;;;;;10.03;2.47;;;;;;;;;;5071032;28;20653;-79
2023/12/22 00:35:06;;;;;;;10.03;2.50;;;;;;;;;;5067879;28;20207;-79
2023/12/22 00:37:32;;;;;;;7.47;1.57;;;;;;;;;;5078081;28;20214;-78
2023/12/22 00:39:58;;;;;;;9.37;2.10;;;;;;;;;;5077138;28;20723;-79
2023/12/22 00:42:25;;;;;;;9.13;1.77;;;;;;;;;;5072405;28;20284;-79
2023/12/22 00:44:51;;;;;;;8.67;1.93;;;;;;;;;;5071511;28;20274;-79
2023/12/22 00:47:17;;;;;;;9.90;1.80;;;;;;;;;;5072547;28;20874;-80
2023/12/22 00:49:44;;;;;;;7.33;2.23;;;;;;;;;;5073925;28;20638;-80
2023/12/22 00:52:10;;;;;;;10.90;2.60;;;;;;;;;;5077987;28;20772;-79
2023/12/22 00:54:36;;;;;;;9.13;1.80;;;;;;;;;;5076879;28;20675;-78
2023/12/22 00:57:02;;;;;;;7.33;1.97;;;;;;;;;;5081641;28;20727;-80
2023/12/22 00:59:28;;;;;;;9.43;2.17;;;;;;;;;;5072837;28;20190;-80
2023/12/22 01:01:54;;;;;;;8.50;1.60;;;;;;;;;;5074713;28;20203;-80
2023/12/22 01:04:20;;;;;;;9.33;1.87;;;;;;;;;;5079414;28;20213;-81
2023/12/22 01:06:46;;;;;;;3.93;2.30;;;;;;;;;;5072269;28;20876;-78
2023/12/22 01:09:12;;;;;;;8.17;1.57;;;;;;;;;;5081956;28;20216;-79
2023/12/22 01:11:38;;;;;;;5.63;1.20;;;;;;;;;;5080847;28;20214;-79
2023/12/22 01:14:05;;;;;;;6.97;1.70;;;;;;;;;;5083374;28;20302;-79
2023/12/22 01:16:31;;;;;;;8.03;1.57;;;;;;;;;;5077501;28;20211;-80
2023/12/22 01:18:57;;;;;;;8.33;1.83;;;;;;;;;;5081726;28;20206;-79
2023/12/22 01:21:24;;;;;;;7.20;1.80;;;;;;;;;;5069078;28;20213;-80
2023/12/22 01:23:50;;;;;;;7.07;1.93;;;;;;;;;;5081016;28;20676;-79
2023/12/22 01:26:15;;;;;;;5.57;1.33;;;;;;;;;;5071796;28;20183;-79
2023/12/22 01:28:42;;;;;;;8.87;2.07;;;;;;;;;;5078621;28;20214;-79
2023/12/22 01:31:08;;;;;;;6.77;1.90;;;;;;;;;;5076353;28;20204;-78
2023/12/22 01:33:34;;;;;;;5.97;1.33;;;;;;;;;;5068827;28;20267;-77
2023/12/22 01:36:00;;;;;;;7.60;1.63;;;;;;;;;;5067362;28;20765;-79
2023/12/22 01:38:26;;;;;;;5.57;1.67;;;;;;;;;;5074180;28;20281;-79
2023/12/22 01:40:52;;;;;;;7.23;1.70;;;;;;;;;;5074409;28;20257;-80
2023/12/22 01:43:21;;;;;;;6.77;1.40;;;;;;;;;;5056578;28;20214;-78
2023/12/22 01:45:48;;;;;;;3.63;1.50;;;;;;;;;;5071039;28;20203;-79
2023/12/22 01:48:14;;;;;;;6.30;1.90;;;;;;;;;;5075804;28;20236;-80
2023/12/22 01:50:40;;;;;;;4.23;1.00;;;;;;;;;;5075690;28;20190;-78
2023/12/22 01:53:06;;;;;;;6.77;1.37;;;;;;;;;;5075392;28;20222;-78
2023/12/22 01:55:32;;;;;;;6.30;1.73;;;;;;;;;;5079993;28;20266;-81
2023/12/22 01:57:59;;;;;;;6.80;1.67;;;;;;;;;;5077492;28;20230;-79
2023/12/22 02:00:25;;;;;;;6.37;1.50;;;;;;;;;;5074736;28;20232;-79
2023/12/22 02:02:51;;;;;;;9.80;1.87;;;;;;;;;;5086364;28;20187;-79
2023/12/22 02:05:17;;;;;;;7.57;1.33;;;;;;;;;;5089357;28;20868;-79
2023/12/22 02:07:43;;;;;;;7.57;1.90;;;;;;;;;;5085365;28;20218;-81
2023/12/22 02:10:10;;;;;;;5.07;1.60;;;;;;;;;;5092095;28;20236;-79
2023/12/22 02:12:37;;;;;;;8.97;1.70;;;;;;;;;;5086437;28;20219;-78
2023/12/22 02:15:04;;;;;;;11.43;1.63;;;;;;;;;;5088143;28;20218;-79
2023/12/22 02:17:37;;;;;;;9.77;1.70;;;;;;;;;;5086417;28;20217;-79
2023/12/22 02:20:04;;;;;;;8.80;1.60;;;;;;;;;;5081935;28;20233;-80
2023/12/22 02:22:33;;;;;;;9.43;1.97;;;;;;;;;;5085656;28;20210;-80
2023/12/22 02:24:59;;;;;;;8.73;1.33;;;;;;;;;;5084397;28;20645;-80
2023/12/22 02:27:28;;;;;;;8.07;1.57;;;;;;;;;;5080070;28;20210;-79
2023/12/22 02:29:56;;;;;;;7.03;1.53;;;;;;;;;;5074214;28;20198;-79
2023/12/22 02:32:25;;;;;;;6.10;1.40;;;;;;;;;;5074718;28;20174;-80
2023/12/22 02:34:53;;;;;;;4.73;1.83;;;;;;;;;;5073389;28;20206;-78
2023/12/22 02:37:20;;;;;;;7.30;1.40;;;;;;;;;;5071958;28;20207;-79
2023/12/22 02:39:47;;;;;;;9.80;1.93;;;;;;;;;;5070807;28;20260;-79
2023/12/22 02:42:13;;;;;;;6.63;1.37;;;;;;;;;;5073539;28;20241;-79
2023/12/22 02:44:39;;;;;;;6.93;1.33;;;;;;;;;;5077109;28;20641;-78
2023/12/22 02:47:05;;;;;;;3.50;1.60;;;;;;;;;;5074499;28;20205;-78
2023/12/22 02:49:31;;;;;;;4.60;1.57;;;;;;;;;;5062045;28;20298;-80
2023/12/22 02:51:57;;;;;;;9.97;1.70;;;;;;;;;;5079528;28;20302;-78
2023/12/22 02:54:23;;;;;;;7.13;1.10;;;;;;;;;;5079878;28;20265;-80
2023/12/22 02:56:49;;;;;;;10.07;1.33;;;;;;;;;;5084797;28;20203;-79
2023/12/22 02:59:15;;;;;;;3.30;1.53;;;;;;;;;;5071674;28;20790;-77
2023/12/22 03:01:42;;;;;;;5.17;1.23;;;;;;;;;;5074106;28;20219;-78
2023/12/22 03:04:08;;;;;;;6.63;1.10;;;;;;;;;;5066698;28;20215;-78
2023/12/22 03:06:34;;;;;;;3.63;0.90;;;;;;;;;;5084081;28;20211;-79
2023/12/22 03:09:00;;;;;;;6.33;1.20;;;;;;;;;;5078898;28;20219;-78
2023/12/22 03:11:26;;;;;;;5.63;0.87;;;;;;;;;;5060529;28;20189;-78
2023/12/22 03:13:52;;;;;;;5.30;1.17;;;;;;;;;;5079134;28;20626;-78
2023/12/22 03:16:18;;;;;;;8.40;1.37;;;;;;;;;;5081243;28;20208;-79
2023/12/22 03:18:44;;;;;;;3.93;1.10;;;;;;;;;;5083550;28;20210;-79
2023/12/22 03:21:17;;;;;;;4.40;1.00;;;;;;;;;;5072075;28;20222;-79
2023/12/22 03:23:43;;;;;;;7.93;1.13;;;;;;;;;;5082023;28;20236;-79
2023/12/22 03:26:09;;;;;;;2.00;0.97;;;;;;;;;;5083629;28;20187;-78
2023/12/22 03:28:34;;;;;;;3.80;0.83;;;;;;;;;;5083331;28;20226;-79
2023/12/22 03:31:01;;;;;;;4.97;1.20;;;;;;;;;;5080111;28;20210;-81
2023/12/22 03:33:27;;;;;;;4.63;1.30;;;;;;;;;;5074170;28;20219;-79
2023/12/22 03:35:53;;;;;;;7.93;1.00;;;;;;;;;;5076933;28;20202;-81
2023/12/22 03:38:19;;;;;;;3.40;1.50;;;;;;;;;;5077233;28;20678;-78
2023/12/22 03:40:45;;;;;;;3.60;0.80;;;;;;;;;;5077674;28;20231;-80
2023/12/22 03:43:11;;;;;;;6.87;1.60;;;;;;;;;;5082453;28;20199;-77
2023/12/22 03:45:37;;;;;;;5.07;0.97;;;;;;;;;;5074477;28;20202;-75
2023/12/22 03:48:03;;;;;;;3.80;1.20;;;;;;;;;;5065366;28;20230;-78
2023/12/22 03:50:29;;;;;;;7.37;1.00;;;;;;;;;;5073318;28;20352;-78
2023/12/22 03:52:56;;;;;;;4.93;1.23;;;;;;;;;;5072758;28;20218;-78
2023/12/22 03:55:22;;;;;;;5.30;0.97;;;;;;;;;;5077672;28;20801;-79
2023/12/22 03:57:48;;;;;;;3.63;1.70;;;;;;;;;;5080993;28;20215;-79
2023/12/22 04:00:16;;;;;;;4.03;1.30;;;;;;;;;;5072434;28;20499;-78
2023/12/22 04:02:42;;;;;;;7.57;1.10;;;;;;;;;;5076207;28;20185;-78
2023/12/22 04:05:08;;;;;;;3.17;0.93;;;;;;;;;;5059505;28;20179;-78
2023/12/22 04:07:36;;;;;;;1.93;0.73;;;;;;;;;;5074424;28;20248;-79
2023/12/22 04:10:02;;;;;;;3.40;0.67;;;;;;;;;;5060555;28;20211;-79
2023/12/22 04:12:28;;;;;;;3.23;0.60;;;;;;;;;;5079670;28;20681;-80
2023/12/22 04:14:54;;;;;;;4.70;0.70;;;;;;;;;;5073997;28;20269;-79
2023/12/22 04:17:20;;;;;;;2.47;0.80;;;;;;;;;;5081867;28;20190;-80
2023/12/22 04:19:46;;;;;;;2.13;0.50;;;;;;;;;;5076258;28;20215;-78
2023/12/22 04:22:12;;;;;;;0.63;0.40;;;;;;;;;;5070230;28;20709;-79
2023/12/22 04:24:38;;;;;;;1.70;0.50;;;;;;;;;;5080575;28;20297;-79
2023/12/22 04:27:04;;;;;;;2.00;0.40;;;;;;;;;;5078259;28;20214;-77
2023/12/22 04:29:30;;;;;;;1.03;0.40;;;;;;;;;;5056284;28;20549;-79
2023/12/22 04:31:56;;;;;;;4.60;0.77;;;;;;;;;;5078445;28;20218;-78
2023/12/22 04:34:22;;;;;;;2.87;0.63;;;;;;;;;;5072330;28;20648;-78
2023/12/22 04:36:48;;;;;;;9.70;1.23;;;;;;;;;;5078681;28;20230;-77
2023/12/22 04:39:14;;;;;;;3.10;1.40;;;;;;;;;;5070342;28;20591;-77
2023/12/22 04:41:40;;;;;;;3.20;0.90;;;;;;;;;;5074171;28;20183;-78
2023/12/22 04:44:07;;;;;;;1.67;0.70;;;;;;;;;;5064535;28;20178;-77
2023/12/22 04:46:33;;;;;;;4.63;1.17;;;;;;;;;;5078336;28;20207;-79
2023/12/22 04:48:59;;;;;;;3.10;0.70;;;;;;;;;;5082285;28;20214;-79
2023/12/22 04:51:25;;;;;;;2.60;0.97;;;;;;;;;;5057823;28;20712;-77
2023/12/22 04:53:51;;;;;;;4.40;0.90;;;;;;;;;;5075986;28;20213;-79
2023/12/22 04:56:17;;;;;;;2.53;0.70;;;;;;;;;;5077688;28;20206;-78
2023/12/22 04:58:43;;;;;;;5.33;0.83;;;;;;;;;;5074001;28;20207;-78
2023/12/22 05:01:09;;;;;;;3.90;1.20;;;;;;;;;;5077370;28;20418;-79
2023/12/22 05:03:35;;;;;;;2.60;0.43;;;;;;;;;;5080753;28;20639;-76
2023/12/22 05:06:01;;;;;;;1.60;0.40;;;;;;;;;;5060968;28;20233;-79
2023/12/22 05:08:27;;;;;;;3.57;0.53;;;;;;;;;;5081032;28;20285;-79
2023/12/22 05:10:53;;;;;;;0.83;0.50;;;;;;;;;;5077764;28;20226;-79
2023/12/22 05:13:19;;;;;;;1.93;0.40;;;;;;;;;;5073539;28;20582;-78
2023/12/22 05:15:45;;;;;;;4.70;0.50;;;;;;;;;;5075352;28;20229;-77
2023/12/22 05:18:11;;;;;;;1.90;0.47;;;;;;;;;;5072388;28;20703;-79
2023/12/22 05:20:37;;;;;;;0.83;0.37;;;;;;;;;;5075042;28;20186;-78
2023/12/22 05:23:03;;;;;;;1.73;0.43;;;;;;;;;;5072008;28;20188;-78
2023/12/22 05:25:29;;;;;;;0.83;0.50;;;;;;;;;;5077263;28;20209;-79
2023/12/22 05:27:55;;;;;;;4.87;0.60;;;;;;;;;;5076635;28;20219;-77
2023/12/22 05:30:21;;;;;;;1.60;0.50;;;;;;;;;;5077269;28;20251;-79
2023/12/22 05:32:47;;;;;;;1.70;0.57;;;;;;;;;;5076085;28;20206;-79
2023/12/22 05:35:13;;;;;;;1.30;0.50;;;;;;;;;;5078005;28;20209;-80
2023/12/22 05:37:39;;;;;;;2.63;0.47;;;;;;;;;;5078611;28;20326;-80
2023/12/22 05:40:09;;;;;;;5.57;0.70;;;;;;;;;;5056838;28;20331;-80
2023/12/22 05:42:35;;;;;;;2.97;0.50;;;;;;;;;;5078327;28;20209;-80
2023/12/22 05:45:01;;;;;;;3.63;0.40;;;;;;;;;;5071174;28;22818;-79
2023/12/22 05:47:27;;;;;;;0.60;0.40;;;;;;;;;;5072054;28;20692;-79
2023/12/22 05:49:53;;;;;;;0.93;0.60;;;;;;;;;;5074998;28;20210;-79
2023/12/22 05:52:19;;;;;;;3.30;0.47;;;;;;;;;;5069623;28;20293;-78
2023/12/22 05:54:45;;;;;;;1.43;0.50;;;;;;;;;;5070479;28;20226;-78
2023/12/22 05:57:12;;;;;;;5.60;0.90;;;;;;;;;;5067748;28;20401;-77
2023/12/22 05:59:38;;;;;;;6.47;0.80;;;;;;;;;;5068977;28;20187;-78
2023/12/22 06:02:04;;;;;;;6.03;0.70;;;;;;;;;;5077102;28;20794;-77
2023/12/22 06:04:30;;;;;;;1.37;0.40;;;;;;;;;;5074490;28;20218;-79
2023/12/22 06:06:56;;;;;;;3.30;0.67;;;;;;;;;;5074473;28;20271;-78
2023/12/22 06:09:22;;;;;;;0.77;0.50;;;;;;;;;;5087551;28;20213;-79
2023/12/22 06:11:49;;;;;;;2.97;0.50;;;;;;;;;;5078541;28;20407;-78
2023/12/22 06:14:15;;;;;;;2.83;0.50;;;;;;;;;;5076237;28;20214;-78
2023/12/22 06:16:41;;;;;;;2.97;1.30;;;;;;;;;;5060943;28;20207;-78
2023/12/22 06:19:07;;;;;;;2.47;0.70;;;;;;;;;;5076494;28;20230;-77
2023/12/22 06:21:33;;;;;;;1.20;0.60;;;;;;;;;;5075160;28;20210;-78
2023/12/22 06:23:59;;;;;;;2.37;0.70;;;;;;;;;;5079923;28;21569;-78
2023/12/22 06:26:25;;;;;;;4.33;0.63;;;;;;;;;;5062410;28;20191;-77
2023/12/22 06:28:51;;;;;;;2.87;0.60;;;;;;;;;;5079245;28;20256;-78
2023/12/22 06:31:21;;;;;;;4.17;0.37;;;;;;;;;;5058568;28;20205;-78
2023/12/22 06:33:47;;;;;;;4.50;0.70;;;;;;;;;;5080698;28;20229;-78
2023/12/22 06:36:23;;;;;;;0.77;0.40;;;;;;;;;;5078704;28;20728;-78
2023/12/22 06:38:50;;;;;;;2.00;0.50;;;;;;;;;;5080119;28;21530;-78
2023/12/22 06:41:20;;;;;;;2.33;0.70;;;;;;;;;;5083637;28;20182;-79
2023/12/22 06:43:46;;;;;;;4.27;0.43;;;;;;;;;;5074989;28;20262;-78
2023/12/22 06:46:19;;;;;;;2.10;0.50;;;;;;;;;;5080440;28;20208;-78
2023/12/22 06:48:45;;;;;;;2.60;0.70;;;;;;;;;;5083355;28;20249;-77
2023/12/22 06:51:21;;;;;;;2.50;0.33;;;;;;;;;;5073277;28;20237;-77
2023/12/22 06:53:47;;;;;;;0.97;0.50;;;;;;;;;;5073323;28;20202;-77
2023/12/22 06:56:20;;;;;;;4.53;0.53;;;;;;;;;;5073999;28;20188;-78
2023/12/22 06:58:48;;;;;;;3.47;0.60;;;;;;;;;;5076405;28;20229;-78
2023/12/22 07:01:26;;;;;;;2.27;0.67;;;;;;;;;;5076389;28;20205;-77
2023/12/22 07:03:52;;;;;;;2.63;0.90;;;;;;;;;;5058445;28;20245;-77
2023/12/22 07:06:19;;;;;;;4.07;0.83;;;;;;;;;;5076416;28;20210;-77
2023/12/22 07:08:58;;;;;;;2.03;0.60;;;;;;;;;;5076518;28;20668;-77
2023/12/22 07:11:24;;;;;;;1.67;0.57;;;;;;;;;;5066809;28;20213;-77
2023/12/22 07:13:50;;;;;;;4.37;0.70;;;;;;;;;;5076987;28;20230;-77
2023/12/22 07:16:16;;;;;;;2.20;0.50;;;;;;;;;;5075464;28;20218;-78
2023/12/22 07:18:42;;;;;;;1.43;0.67;;;;;;;;;;5079248;28;20236;-78
2023/12/22 07:21:08;;;;;;;3.10;0.90;;;;;;;;;;5078758;28;20210;-78
2023/12/22 07:23:34;;;;;;;2.27;0.73;;;;;;;;;;5086048;28;20183;-77
2023/12/22 07:26:00;;;;;;;0.70;0.40;;;;;;;;;;5078454;28;20209;-78
2023/12/22 07:28:26;;;;;;;1.50;0.80;;;;;;;;;;5077400;28;20712;-77
2023/12/22 07:30:53;;;;;;;1.80;0.77;;;;;;;;;;5069046;28;20272;-78
2023/12/22 07:33:19;;;;;;;2.63;0.70;;;;;;;;;;5078426;28;20220;-77
2023/12/22 07:35:45;;;;;;;3.70;0.73;;;;;;;;;;5073342;28;20179;-78
2023/12/22 07:38:11;;;;;;;5.00;0.97;;;;;;;;;;5076729;28;20221;-77
2023/12/22 07:40:37;;;;;;;1.80;0.90;;;;;;;;;;5078285;28;20207;-78
2023/12/22 07:43:03;;;;;;;2.07;0.70;;;;;;;;;;5076686;28;20336;-77
2023/12/22 07:45:29;;;;;;;5.07;1.10;;;;;;;;;;5076036;28;20351;-77
2023/12/22 07:47:55;;;;;;;5.13;0.60;;;;;;;;;;5074384;28;20259;-77
2023/12/22 07:50:21;;;;;;;7.77;1.13;;;;;;;;;;5071929;28;20545;-78
2023/12/22 07:52:47;;;;;;;2.87;0.70;;;;;;;;;;5072104;28;20232;-77
2023/12/22 07:55:13;;;;;;;3.70;1.27;;;;;;;;;;5075630;28;20203;-78
2023/12/22 07:57:39;;;;;;;2.60;0.77;;;;;;;;;;5058302;28;20272;-78
2023/12/22 08:00:09;;;;;;;1.70;0.90;;;;;;;;;;5076191;28;20237;-77
2023/12/22 08:02:35;;;;;;;4.97;0.93;;;;;;;;;;5077428;28;20182;-76
2023/12/22 08:05:01;;;;;;;2.70;0.80;;;;;;;;;;5072619;28;20175;-80
2023/12/22 08:07:33;;;;;;;5.80;0.87;;;;;;;;;;5081085;28;20239;-83
2023/12/22 08:09:59;;;;;;;2.30;0.30;;;;;;;;;;5077489;28;20226;-79
2023/12/22 08:12:25;;;;;;;5.00;0.77;;;;;;;;;;5075111;28;20210;-79
2023/12/22 08:14:51;;;;;;;1.77;0.57;;;;;;;;;;5079136;28;20211;-80
2023/12/22 08:17:17;;;;;;;2.73;0.83;;;;;;;;;;5079893;28;20191;-79
2023/12/22 08:19:43;;;;;;;1.47;0.87;;;;;;;;;;5079245;28;20203;-79
2023/12/22 08:22:15;;;;;;;2.43;0.60;;;;;;;;;;5075086;28;20205;-78
2023/12/22 08:24:41;;;;;;;1.37;0.43;;;;;;;;;;5064286;28;20226;-79
2023/12/22 08:27:07;;;;;;;1.60;0.50;;;;;;;;;;5083824;28;20214;-79
2023/12/22 08:29:33;;;;;;;1.40;0.20;;;;;;;;;;5078566;28;20210;-80
2023/12/22 08:32:00;;;;;;;2.27;0.67;;;;;;;;;;5062221;28;20215;-80
2023/12/22 08:34:26;;;;;;;4.17;0.87;;;;;;;;;;5073442;28;20219;-80
2023/12/22 08:36:52;;;;;;;1.17;0.67;;;;;;;;;;5074185;28;20237;-80
2023/12/22 08:39:18;;;;;;;0.87;0.50;;;;;;;;;;5073534;28;20202;-79
2023/12/22 08:41:45;;;;;;;3.27;0.80;;;;;;;;;;5081669;28;20187;-80
2023/12/22 08:44:14;;;;;;;5.57;0.93;;;;;;;;;;5077729;28;20694;-80
2023/12/22 08:46:40;;;;;;;6.87;0.90;;;;;;;;;;5060514;28;20207;-82
2023/12/22 08:49:06;;;;;;;3.53;0.77;;;;;;;;;;5083509;28;20616;-79
2023/12/22 08:51:32;;;;;;;5.13;0.97;;;;;;;;;;5082522;28;20202;-80
2023/12/22 08:53:58;;;;;;;5.43;1.27;;;;;;;;;;5079077;28;20499;-80
2023/12/22 08:56:25;;;;;;;5.40;1.63;;;;;;;;;;5077863;28;20201;-80
2023/12/22 08:58:52;;;;;;;4.37;1.00;;;;;;;;;;5076990;28;20261;-81
2023/12/22 09:01:19;;;;;;;3.93;0.97;;;;;;;;;;5081942;28;20234;-80
2023/12/22 09:03:46;;;;;;;2.53;0.67;;;;;;;;;;5075556;28;20214;-81
2023/12/22 09:06:15;;;;;;;2.70;1.07;;;;;;;;;;5081243;28;20345;-81
2023/12/22 09:08:42;;;;;;;9.70;1.10;;;;;;;;;;5078291;28;20213;-80
2023/12/22 09:11:08;;;;;;;10.60;1.10;;;;;;;;;;5056393;28;21539;-79
2023/12/22 09:13:35;;;;;;;4.67;0.97;;;;;;;;;;5074411;28;20344;-77
2023/12/22 09:16:05;;;;;;;2.43;0.80;;;;;;;;;;5071740;28;20239;-79
2023/12/22 09:18:31;;;;;;;4.60;1.30;;;;;;;;;;5071121;28;20207;-79
2023/12/22 09:20:57;;;;;;;6.90;1.10;;;;;;;;;;5073691;28;20285;-79
2023/12/22 09:23:23;;;;;;;6.40;1.27;;;;;;;;;;5072990;28;20184;-79
2023/12/22 09:25:49;;;;;;;8.03;1.10;;;;;;;;;;5080114;28;20264;-78
2023/12/22 09:28:15;;;;;;;8.70;1.17;;;;;;;;;;5083816;28;20221;-79
2023/12/22 09:30:41;;;;;;;6.60;1.53;;;;;;;;;;5070918;28;20297;-80
2023/12/22 09:33:08;;;;;;;4.30;1.23;;;;;;;;;;5078274;28;20279;-79
2023/12/22 09:35:34;;;;;;;5.47;1.40;;;;;;;;;;5082554;28;20916;-81
2023/12/22 09:38:00;;;;;;;7.40;2.30;;;;;;;;;;5075865;28;20207;-82
2023/12/22 09:40:26;;;;;;;5.93;1.10;;;;;;;;;;5079008;28;20305;-81
2023/12/22 09:42:54;;;;;;;8.53;2.07;;;;;;;;;;5080478;28;20199;-81
2023/12/22 09:45:21;;;;;;;7.57;1.20;;;;;;;;;;5078407;28;20207;-82
2023/12/22 09:47:48;;;;;;;11.37;1.97;;;;;;;;;;5080472;28;20195;-82
2023/12/22 09:50:15;;;;;;;5.43;1.70;;;;;;;;;;5079763;28;20186;-79
2023/12/22 09:52:44;;;;;;;6.67;0.97;;;;;;;;;;5081194;28;20207;-80
2023/12/22 09:55:10;;;;;;;8.67;1.97;;;;;;;;;;5083142;28;20206;-80
2023/12/22 09:57:36;;;;;;;5.97;1.80;;;;;;;;;;5087154;28;20203;-79
2023/12/22 10:00:06;;;;;;;7.93;1.70;;;;;;;;;;5071824;28;20272;-79
2023/12/22 10:02:34;;;;;;;7.50;2.33;;;;;;;;;;5086815;28;20172;-79
2023/12/22 10:05:00;;;;;;;9.70;2.93;;;;;;;;;;5091952;28;20264;-81
2023/12/22 10:07:27;;;;;;;9.87;1.77;;;;;;;;;;5085291;28;20215;-79
2023/12/22 10:09:55;;;;;;;9.00;1.50;;;;;;;;;;5068758;28;20674;-76
2023/12/22 10:12:21;;;;;;;8.17;2.30;;;;;;;;;;5071074;28;20207;-78
2023/12/22 10:14:47;;;;;;;10.10;1.53;;;;;;;;;;5073677;28;20220;-77
2023/12/22 10:17:14;;;;;;;6.60;1.67;;;;;;;;;;5071676;28;20210;-75
2023/12/22 10:19:40;;;;;;;5.43;2.07;;;;;;;;;;5073490;28;20649;-76
2023/12/22 10:22:06;;;;;;;6.90;2.00;;;;;;;;;;5073709;28;20766;-78
2023/12/22 10:24:43;;;;;;;7.37;1.17;;;;;;;;;;5069948;28;20214;-77
2023/12/22 10:27:09;;;;;;;7.30;1.57;;;;;;;;;;5068991;28;20308;-77
2023/12/22 10:29:35;;;;;;;8.50;2.33;;;;;;;;;;5052041;28;20266;-78
2023/12/22 10:32:05;;;;;;;9.00;2.10;;;;;;;;;;5069294;28;20189;-78
2023/12/22 10:34:32;;;;;;;8.50;1.80;;;;;;;;;;5072088;28;20215;-78
2023/12/22 10:36:59;;;;;;;5.57;1.33;;;;;;;;;;5073572;28;20620;-78
2023/12/22 10:39:29;;;;;;;11.07;1.87;;;;;;;;;;5073394;28;20681;-78
2023/12/22 10:41:55;;;;;;;7.77;1.27;;;;;;;;;;5063435;28;20269;-77
2023/12/22 10:44:24;;;;;;;8.77;2.20;;;;;;;;;;5070731;28;20167;-78
2023/12/22 10:46:50;;;;;;;16.80;2.30;;;;;;;;;;5054517;28;20199;-77
2023/12/22 10:49:16;;;;;;;6.50;1.60;;;;;;;;;;5070833;28;20203;-78
2023/12/22 10:51:42;;;;;;;3.90;1.20;;;;;;;;;;5072496;28;20203;-79
2023/12/22 10:54:08;;;;;;;6.97;1.80;;;;;;;;;;5074642;28;20259;-78
2023/12/22 10:56:34;;;;;;;8.17;1.90;;;;;;;;;;5055226;28;20187;-78
2023/12/22 10:59:01;;;;;;;5.10;1.53;;;;;;;;;;5067966;28;20175;-78
2023/12/22 11:01:30;;;;;;;7.93;1.30;;;;;;;;;;5070869;28;20215;-78
2023/12/22 11:03:58;;;;;;;6.37;1.90;;;;;;;;;;5076203;28;20206;-79
2023/12/22 11:06:26;;;;;;;9.03;1.93;;;;;;;;;;5076512;28;20250;-80
2023/12/22 11:08:53;;;;;;;8.87;2.10;;;;;;;;;;5076714;28;20209;-77
2023/12/22 11:11:31;;;;;;;9.57;2.40;;;;;;;;;;5080311;28;20638;-80
2023/12/22 11:13:58;;;;;;;5.07;1.57;;;;;;;;;;5076957;28;20277;-80
2023/12/22 11:16:25;;;;;;;5.73;1.33;;;;;;;;;;5074728;28;20243;-78
2023/12/22 11:18:54;;;;;;;4.87;1.80;;;;;;;;;;5075714;28;20221;-80
2023/12/22 11:21:22;;;;;;;6.43;1.73;;;;;;;;;;5078358;28;20215;-78
2023/12/22 11:23:48;;;;;;;7.43;1.70;;;;;;;;;;5072760;28;20183;-79
2023/12/22 11:26:14;;;;;;;7.10;1.43;;;;;;;;;;5082545;28;20182;-77
2023/12/22 11:28:41;;;;;;;3.27;1.63;;;;;;;;;;5080928;28;20305;-79
2023/12/22 11:31:09;;;;;;;5.70;1.30;;;;;;;;;;5072536;28;20225;-78
2023/12/22 11:33:35;;;;;;;7.73;1.40;;;;;;;;;;5077023;28;20222;-78
2023/12/22 11:36:01;;;;;;;9.20;1.67;;;;;;;;;;5059416;28;20234;-79
2023/12/22 11:38:27;;;;;;;3.20;1.20;;;;;;;;;;5074682;28;20228;-78
2023/12/22 11:40:54;;;;;;;4.87;1.40;;;;;;;;;;5074143;28;20235;-75
2023/12/22 11:43:20;;;;;;;9.63;1.60;;;;;;;;;;5073941;28;20231;-78
2023/12/22 11:45:48;;;;;;;4.07;1.47;;;;;;;;;;5073682;28;20290;-78
2023/12/22 11:48:15;;;;;;;4.60;1.10;;;;;;;;;;5072705;28;20234;-77
2023/12/22 11:50:41;;;;;;;6.03;1.57;;;;;;;;;;5055907;28;20529;-79
2023/12/22 11:53:22;;;;;;;5.47;1.00;;;;;;;;;;5075539;28;20289;-79
2023/12/22 11:56:05;;;;;;;7.37;1.83;;;;;;;;;;5073420;28;20211;-79
2023/12/22 11:58:50;;;;;;;4.53;1.63;;;;;;;;;;5069919;28;20213;-76
2023/12/22 12:01:17;;;;;;;4.20;0.90;;;;;;;;;;5077846;28;20199;-78
2023/12/22 12:03:49;;;;;;;2.53;1.37;;;;;;;;;;5068015;28;20298;-77
2023/12/22 12:06:30;;;;;;;7.33;1.17;;;;;;;;;;5080612;28;20648;-78
2023/12/22 12:09:01;;;;;;;7.23;1.27;;;;;;;;;;5065133;28;20218;-77
2023/12/22 12:11:46;;;;;;;7.07;1.37;;;;;;;;;;5078390;28;20179;-78
2023/12/22 12:14:14;;;;;;;4.63;1.07;;;;;;;;;;5074929;28;20222;-78
2023/12/22 12:16:41;;;;;;;6.23;1.13;;;;;;;;;;5079699;28;20267;-78
2023/12/22 12:19:10;;;;;;;3.57;1.00;;;;;;;;;;5077340;28;20203;-78
2023/12/22 12:21:36;;;;;;;7.67;1.67;;;;;;;;;;5081333;28;20211;-78
2023/12/22 12:24:05;;;;;;;4.73;1.17;;;;;;;;;;5073898;28;20298;-78
2023/12/22 12:26:31;;;;;;;6.07;1.57;;;;;;;;;;5088610;28;20201;-79
2023/12/22 12:28:57;;;;;;;6.73;1.70;;;;;;;;;;5075797;28;20204;-78
2023/12/22 12:31:36;;;;;;;7.53;1.73;;;;;;;;;;5070935;28;21040;-78
2023/12/22 12:34:02;;;;;;;6.60;1.60;;;;;;;;;;5078098;28;20221;-78
2023/12/22 12:36:29;;;;;;;5.47;1.33;;;;;;;;;;5081667;28;20211;-78
2023/12/22 12:39:01;;;;;;;5.80;1.73;;;;;;;;;;5079099;28;20213;-78
2023/12/22 12:41:34;;;;;;;6.03;1.40;;;;;;;;;;5079306;28;20176;-79
2023/12/22 12:44:01;;;;;;;5.70;1.30;;;;;;;;;;5077276;28;20211;-78
2023/12/22 12:46:33;;;;;;;2.37;1.10;;;;;;;;;;5076992;28;20215;-79
2023/12/22 12:49:04;;;;;;;4.83;1.20;;;;;;;;;;5056832;28;20214;-78
2023/12/22 12:51:30;;;;;;;6.87;2.00;;;;;;;;;;5080804;28;20221;-78
2023/12/22 12:53:56;;;;;;;7.20;1.30;;;;;;;;;;5077461;28;20230;-74
2023/12/22 12:56:22;;;;;;;9.57;2.07;;;;;;;;;;5079991;28;20179;-76
2023/12/22 12:58:48;;;;;;;4.23;1.27;;;;;;;;;;5072361;28;20697;-76
2023/12/22 13:01:15;;;;;;;7.70;1.67;;;;;;;;;;5069862;28;20206;-77
2023/12/22 13:03:54;;;;;;;5.63;1.80;;;;;;;;;;5049842;28;20213;-76
2023/12/22 13:06:21;;;;;;;7.10;1.70;;;;;;;;;;5070313;28;20656;-76
2023/12/22 13:08:50;;;;;;;6.17;1.30;;;;;;;;;;5064949;28;20199;-76
2023/12/22 13:11:21;;;;;;;9.70;2.03;;;;;;;;;;5068164;28;21083;-76
2023/12/22 13:13:47;;;;;;;9.90;1.70;;;;;;;;;;5072839;28;20585;-76
2023/12/22 13:16:13;;;;;;;8.27;2.20;;;;;;;;;;5069127;28;20218;-74
2023/12/22 13:18:40;;;;;;;6.70;1.80;;;;;;;;;;5064657;28;20218;-75
2023/12/22 13:21:06;;;;;;;7.73;2.23;;;;;;;;;;5053015;28;20264;-75
2023/12/22 13:23:32;;;;;;;7.53;1.67;;;;;;;;;;5066876;28;20197;-78
2023/12/22 13:25:58;;;;;;;2.63;1.20;;;;;;;;;;5072855;28;20218;-79
2023/12/22 13:28:28;;;;;;;4.23;1.57;;;;;;;;;;5076255;28;20565;-78
2023/12/22 13:30:54;;;;;;;9.27;1.60;;;;;;;;;;5071173;28;20238;-78
2023/12/22 13:33:20;;;;;;;6.17;1.73;;;;;;;;;;5073608;28;20214;-78
2023/12/22 13:35:47;;;;;;;7.53;1.93;;;;;;;;;;5069145;28;20905;-76
2023/12/22 13:38:13;;;;;;;10.70;1.93;;;;;;;;;;5070465;28;20203;-76
2023/12/22 13:40:39;;;;;;;5.90;2.23;;;;;;;;;;5077844;28;20314;-77
2023/12/22 13:43:07;;;;;;;9.77;2.30;;;;;;;;;;5074216;28;20293;-79
2023/12/22 13:45:33;;;;;;;10.80;3.00;;;;;;;;;;5072248;28;20293;-77
2023/12/22 13:47:59;;;;;;;7.80;1.77;;;;;;;;;;5075913;28;20742;-76
2023/12/22 13:50:25;;;;;;;6.27;1.30;;;;;;;;;;5071741;28;20625;-77
2023/12/22 13:52:51;;;;;;;5.80;2.60;;;;;;;;;;5071419;28;20214;-76
2023/12/22 13:55:18;;;;;;;5.53;2.10;;;;;;;;;;5070938;28;20206;-77
2023/12/22 13:57:45;;;;;;;9.07;1.93;;;;;;;;;;5069624;28;20724;-77
2023/12/22 14:00:20;;;;;;;9.77;2.63;;;;;;;;;;5072652;28;20733;-77
2023/12/22 14:02:49;;;;;;;4.27;0.70;;;;;;;;;;5076232;28;20645;-76
2023/12/22 14:05:15;;;;;;;7.90;1.93;;;;;;;;;;5073268;28;20595;-76
2023/12/22 14:07:41;;;;;;;8.97;1.63;;;;;;;;;;5062241;28;20237;-78
2023/12/22 14:10:08;;;;;;;7.67;1.73;;;;;;;;;;5070384;28;20202;-77
2023/12/22 14:12:35;;;;;;;1.23;0.77;;;;;;;;;;5076314;28;20286;-78
2023/12/22 14:15:01;;;;;;;7.73;1.60;;;;;;;;;;5072212;28;20785;-78
2023/12/22 14:17:27;;;;;;;5.70;2.33;;;;;;;;;;5072815;28;20203;-78
2023/12/22 14:19:53;;;;;;;4.30;1.40;;;;;;;;;;5076028;28;20293;-76
2023/12/22 14:22:19;;;;;;;3.67;1.20;;;;;;;;;;5055659;28;20201;-77
2023/12/22 14:24:45;;;;;;;3.53;1.00;;;;;;;;;;5068946;28;20211;-76
2023/12/22 14:27:11;;;;;;;9.03;1.83;;;;;;;;;;5054666;28;20591;-77
2023/12/22 14:29:40;;;;;;;5.83;1.83;;;;;;;;;;5066801;28;20182;-80
2023/12/22 14:32:08;;;;;;;4.87;1.50;;;;;;;;;;5071472;28;20202;-78
2023/12/22 14:34:34;;;;;;;4.83;0.97;;;;;;;;;;5073204;28;20211;-79
2023/12/22 14:37:00;;;;;;;4.97;1.17;;;;;;;;;;5064913;28;20796;-78
2023/12/22 14:39:27;;;;;;;4.50;1.30;;;;;;;;;;5070655;28;20638;-78
2023/12/22 14:41:53;;;;;;;4.87;1.30;;;;;;;;;;5077107;28;20293;-77